createdAt,value
2022-09-17T00:01:35.918Z,4.10
2022-09-17T00:04:05.137Z,3.80
2022-09-17T00:06:35.872Z,5.40
2022-09-17T00:11:38.187Z,4.20
2022-09-17T00:14:09.503Z,2.40
2022-09-17T00:16:42.920Z,4.00
2022-09-17T00:19:16.091Z,2.00
2022-09-17T00:21:44.367Z,3.20
2022-09-17T00:24:14.446Z,5.70
2022-09-17T00:26:44.096Z,2.80
2022-09-17T00:29:12.731Z,5.40
2022-09-17T00:31:41.841Z,2.80
2022-09-17T00:34:12.063Z,3.50
2022-09-17T00:36:40.577Z,3.40
2022-09-17T00:39:11.250Z,3.10
2022-09-17T00:41:39.999Z,3.50
2022-09-17T00:44:43.250Z,3.20
2022-09-17T00:47:21.093Z,3.30
2022-09-17T00:50:01.786Z,2.40
2022-09-17T00:52:44.468Z,3.40
2022-09-17T00:55:24.423Z,2.90
2022-09-17T00:57:56.634Z,6.70
2022-09-17T01:00:26.830Z,2.50
2022-09-17T01:02:55.293Z,2.40
2022-09-17T01:05:42.821Z,2.60
2022-09-17T01:08:52.814Z,2.80
2022-09-17T01:11:35.426Z,2.80
2022-09-17T01:17:04.924Z,5.70
2022-09-17T01:19:45.548Z,3.00
2022-09-17T01:22:23.068Z,2.70
2022-09-17T01:25:36.986Z,1.90
2022-09-17T01:28:33.778Z,2.20
2022-09-17T01:31:07.816Z,2.20
2022-09-17T01:33:43.702Z,2.80
2022-09-17T01:36:15.141Z,3.30
2022-09-17T01:39:32.959Z,4.20
2022-09-17T01:42:13.966Z,2.30
2022-09-17T01:45:04.843Z,2.30
2022-09-17T01:47:43.595Z,1.50
2022-09-17T01:50:18.428Z,3.20
2022-09-17T01:52:50.326Z,4.00
2022-09-17T01:55:22.925Z,1.60
2022-09-17T02:00:25.373Z,3.50
2022-09-17T02:03:09.145Z,4.60
2022-09-17T02:05:43.815Z,1.90
2022-09-17T02:08:19.693Z,3.10
2022-09-17T02:11:15.526Z,3.10
2022-09-17T02:13:51.404Z,0.70
2022-09-17T02:16:25.387Z,1.30
2022-09-17T02:19:19.357Z,1.80
2022-09-17T02:21:54.777Z,0.80
2022-09-17T02:24:32.189Z,0.80
2022-09-17T02:27:46.324Z,1.60
2022-09-17T02:30:15.304Z,2.70
2022-09-17T02:32:44.127Z,2.20
2022-09-17T02:35:14.543Z,2.10
2022-09-17T02:37:44.054Z,3.50
2022-09-17T02:40:15.613Z,1.70
2022-09-17T02:42:43.815Z,5.30
2022-09-17T02:45:24.447Z,1.80
2022-09-17T02:48:09.312Z,1.60
2022-09-17T02:50:59.296Z,2.00
2022-09-17T02:53:48.693Z,3.30
2022-09-17T02:56:18.226Z,2.20
2022-09-17T02:59:12.029Z,4.30
2022-09-17T03:01:48.080Z,4.60
2022-09-17T03:04:18.946Z,1.70
2022-09-17T03:06:48.242Z,3.90
2022-09-17T03:09:16.862Z,4.90
2022-09-17T03:11:45.082Z,2.10
2022-09-17T03:14:13.481Z,3.40
2022-09-17T03:16:41.961Z,1.70
2022-09-17T03:19:10.202Z,1.50
2022-09-17T03:21:38.716Z,1.80
2022-09-17T03:24:07.324Z,2.20
2022-09-17T03:26:35.578Z,1.60
2022-09-17T03:29:03.993Z,1.50
2022-09-17T03:31:32.685Z,1.00
2022-09-17T03:34:01.122Z,1.50
2022-09-17T03:36:29.774Z,4.60
2022-09-17T03:38:59.359Z,1.20
2022-09-17T03:41:28.199Z,3.40
2022-09-17T03:43:56.642Z,1.50
2022-09-17T03:46:25.936Z,4.40
2022-09-17T03:48:54.260Z,1.60
2022-09-17T03:51:22.743Z,0.80
2022-09-17T03:53:51.462Z,2.10
2022-09-17T03:56:20.112Z,3.50
2022-09-17T03:58:48.354Z,3.50
2022-09-17T04:01:16.854Z,2.20
2022-09-17T04:03:46.167Z,1.00
2022-09-17T04:06:14.550Z,1.60
2022-09-17T04:08:43.951Z,2.60
2022-09-17T04:11:12.328Z,2.80
2022-09-17T04:13:40.609Z,1.70
2022-09-17T04:16:09.278Z,3.80
2022-09-17T04:18:37.874Z,2.20
2022-09-17T04:21:06.609Z,3.20
2022-09-17T04:23:35.066Z,2.90
2022-09-17T04:26:04.341Z,2.60
2022-09-17T04:28:32.836Z,3.60
2022-09-17T04:31:01.288Z,2.30
2022-09-17T04:33:29.883Z,3.90
2022-09-17T04:35:58.338Z,1.90
2022-09-17T04:38:27.052Z,4.00
2022-09-17T04:40:57.436Z,3.60
2022-09-17T04:43:25.704Z,2.30
2022-09-17T04:45:54.437Z,2.90
2022-09-17T04:48:22.874Z,5.60
2022-09-17T04:50:51.647Z,3.20
2022-09-17T04:53:20.613Z,3.30
2022-09-17T04:55:49.291Z,3.80
2022-09-17T04:58:17.674Z,3.20
2022-09-17T05:00:46.720Z,2.40
2022-09-17T05:03:15.438Z,2.60
2022-09-17T05:05:43.825Z,1.10
2022-09-17T05:08:12.508Z,2.70
2022-09-17T05:10:41.294Z,2.40
2022-09-17T05:13:09.574Z,3.90
2022-09-17T05:15:38.257Z,2.50
2022-09-17T05:18:06.845Z,3.50
2022-09-17T05:20:35.261Z,3.80
2022-09-17T05:23:03.908Z,3.00
2022-09-17T05:25:32.591Z,3.20
2022-09-17T05:28:01.511Z,2.20
2022-09-17T05:30:30.599Z,4.00
2022-09-17T05:33:03.463Z,2.80
2022-09-17T05:35:32.179Z,3.10
2022-09-17T05:38:02.959Z,2.50
2022-09-17T05:40:33.394Z,2.10
2022-09-17T05:43:04.724Z,2.90
2022-09-17T05:45:35.286Z,5.30
2022-09-17T05:48:05.846Z,3.50
2022-09-17T05:50:34.111Z,3.40
2022-09-17T05:53:08.338Z,3.50
2022-09-17T05:55:36.993Z,1.30
2022-09-17T05:58:17.066Z,1.60
2022-09-17T06:00:47.326Z,1.90
2022-09-17T06:03:18.082Z,2.70
2022-09-17T06:05:58.415Z,2.00
2022-09-17T06:08:29.055Z,1.60
2022-09-17T06:11:02.137Z,2.70
2022-09-17T06:13:31.402Z,2.60
2022-09-17T06:16:01.603Z,3.80
2022-09-17T06:18:31.235Z,2.90
2022-09-17T06:21:02.679Z,4.60
2022-09-17T06:23:37.807Z,4.90
2022-09-17T06:26:07.001Z,3.70
2022-09-17T06:28:41.192Z,5.40
2022-09-17T06:31:13.360Z,4.20
2022-09-17T06:33:41.854Z,3.90
2022-09-17T06:36:14.661Z,4.40
2022-09-17T06:38:45.614Z,2.40
2022-09-17T06:41:15.153Z,4.80
2022-09-17T06:43:44.072Z,3.50
2022-09-17T06:46:12.686Z,6.00
2022-09-17T06:48:41.547Z,3.50
2022-09-17T06:51:11.635Z,3.50
2022-09-17T06:53:40.967Z,3.60
2022-09-17T06:56:10.162Z,4.60
2022-09-17T06:58:38.749Z,5.60
2022-09-17T07:01:07.714Z,5.80
2022-09-17T07:03:36.478Z,4.40
2022-09-17T07:06:09.500Z,5.20
2022-09-17T07:08:39.602Z,4.00
2022-09-17T07:11:08.730Z,3.10
2022-09-17T07:13:37.005Z,7.00
2022-09-17T07:16:06.703Z,3.90
2022-09-17T07:18:35.195Z,2.90
2022-09-17T07:21:05.739Z,3.00
2022-09-17T07:23:36.864Z,4.70
2022-09-17T07:26:08.744Z,2.40
2022-09-17T07:28:39.377Z,5.80
2022-09-17T07:31:13.709Z,7.20
2022-09-17T07:33:45.388Z,5.30
2022-09-17T07:36:17.967Z,3.60
2022-09-17T07:38:47.382Z,3.40
2022-09-17T07:41:17.657Z,2.50
2022-09-17T07:43:46.361Z,2.80
2022-09-17T07:46:17.909Z,3.90
2022-09-17T07:48:47.824Z,2.50
2022-09-17T07:51:28.509Z,2.20
2022-09-17T07:53:59.192Z,3.70
2022-09-17T07:56:28.970Z,3.00
2022-09-17T07:58:57.663Z,3.00
2022-09-17T08:01:27.414Z,3.20
2022-09-17T08:03:55.881Z,3.60
2022-09-17T08:06:26.408Z,2.60
2022-09-17T08:08:56.772Z,3.50
2022-09-17T08:11:51.626Z,2.20
2022-09-17T08:14:16.940Z,2.80
2022-09-17T08:16:48.499Z,4.70
2022-09-17T08:19:18.207Z,3.60
2022-09-17T08:21:46.729Z,4.10
2022-09-17T08:24:15.059Z,3.50
2022-09-17T08:26:43.345Z,4.20
2022-09-17T08:29:12.065Z,7.30
2022-09-17T08:31:40.708Z,4.00
2022-09-17T08:34:10.216Z,2.70
2022-09-17T08:36:38.935Z,3.50
2022-09-17T08:39:08.236Z,3.40
2022-09-17T08:41:49.686Z,11.20
2022-09-17T08:44:30.892Z,2.80
2022-09-17T08:46:59.717Z,4.30
2022-09-17T08:49:38.443Z,4.10
2022-09-17T08:52:17.396Z,5.00
2022-09-17T08:55:12.510Z,4.10
2022-09-17T08:58:18.680Z,3.60
2022-09-17T09:00:51.892Z,3.70
2022-09-17T09:03:50.354Z,4.00
2022-09-17T09:06:22.653Z,4.10
2022-09-17T09:08:59.903Z,3.50
2022-09-17T09:11:31.409Z,4.40
2022-09-17T09:14:30.452Z,3.50
2022-09-17T09:17:03.727Z,4.60
2022-09-17T09:19:40.624Z,2.60
2022-09-17T09:22:41.873Z,3.00
2022-09-17T09:25:24.239Z,4.40
2022-09-17T09:30:51.342Z,3.60
2022-09-17T09:33:36.216Z,4.30
2022-09-17T09:36:12.221Z,2.10
2022-09-17T09:38:52.425Z,3.10
2022-09-17T09:41:30.427Z,3.30
2022-09-17T09:44:05.104Z,3.50
2022-09-17T09:47:12.623Z,3.50
2022-09-17T09:49:50.695Z,2.60
2022-09-17T09:52:50.266Z,3.20
2022-09-17T09:55:40.408Z,2.90
2022-09-17T09:58:08.732Z,2.20
2022-09-17T10:00:39.807Z,3.50
2022-09-17T10:03:40.611Z,3.90
2022-09-17T10:06:10.931Z,4.00
2022-09-17T10:08:57.596Z,3.10
2022-09-17T10:11:28.326Z,2.90
2022-09-17T10:14:22.051Z,4.20
2022-09-17T10:16:51.216Z,1.60
2022-09-17T10:19:25.294Z,1.10
2022-09-17T10:21:54.245Z,1.70
2022-09-17T10:24:32.441Z,5.10
2022-09-17T10:27:02.922Z,3.10
2022-09-17T10:29:32.208Z,3.40
2022-09-17T10:32:00.919Z,2.00
2022-09-17T10:34:31.953Z,1.30
2022-09-17T10:37:00.497Z,1.20
2022-09-17T10:39:38.704Z,1.30
2022-09-17T10:42:15.948Z,1.00
2022-09-17T10:45:23.813Z,2.30
2022-09-17T10:47:52.943Z,1.60
2022-09-17T10:50:32.225Z,2.70
2022-09-17T10:53:05.425Z,4.50
2022-09-17T10:55:38.742Z,1.90
2022-09-17T10:58:10.328Z,0.90
2022-09-17T11:00:53.830Z,4.40
2022-09-17T11:03:56.423Z,3.10
2022-09-17T11:09:13.511Z,3.90
2022-09-17T11:11:48.475Z,3.00
2022-09-17T11:14:38.782Z,1.60
2022-09-17T11:17:25.884Z,2.90
2022-09-17T11:20:25.611Z,5.20
2022-09-17T11:23:19.032Z,2.30
2022-09-17T11:26:00.926Z,1.90
2022-09-17T11:28:36.096Z,7.90
2022-09-17T11:31:42.195Z,2.40
2022-09-17T11:34:42.966Z,2.60
2022-09-17T11:37:26.765Z,3.10
2022-09-17T11:40:12.867Z,3.90
2022-09-17T11:42:50.376Z,3.50
2022-09-17T11:45:27.584Z,3.90
2022-09-17T11:48:06.535Z,3.00
2022-09-17T11:50:48.195Z,3.10
2022-09-17T11:53:30.786Z,5.70
2022-09-17T11:56:27.591Z,2.60
2022-09-17T11:59:05.906Z,4.90
2022-09-17T12:01:52.839Z,3.80
2022-09-17T12:05:00.031Z,2.60
2022-09-17T12:07:57.828Z,2.10
2022-09-17T12:10:32.324Z,2.80
2022-09-17T12:13:17.986Z,4.50
2022-09-17T12:15:53.322Z,3.90
2022-09-17T12:18:33.404Z,2.40
2022-09-17T12:21:05.851Z,6.40
2022-09-17T12:23:49.389Z,2.10
2022-09-17T12:26:43.807Z,2.40
2022-09-17T12:29:37.122Z,3.90
2022-09-17T12:32:30.457Z,2.40
2022-09-17T12:35:07.785Z,2.60
2022-09-17T12:37:51.139Z,2.70
2022-09-17T12:40:39.868Z,1.50
2022-09-17T12:43:31.389Z,2.10
2022-09-17T12:45:59.555Z,2.60
2022-09-17T12:49:12.722Z,2.30
2022-09-17T12:51:49.377Z,2.00
2022-09-17T12:54:36.677Z,3.40
2022-09-17T12:57:29.243Z,2.30
2022-09-17T13:00:11.948Z,1.60
2022-09-17T13:03:28.616Z,4.00
2022-09-17T13:06:15.020Z,4.10
2022-09-17T13:09:05.555Z,2.80
2022-09-17T13:12:06.517Z,2.60
2022-09-17T13:15:11.905Z,1.50
2022-09-17T13:18:12.360Z,2.50
2022-09-17T13:21:02.004Z,2.40
2022-09-17T13:23:38.853Z,2.60
2022-09-17T13:26:11.466Z,3.40
2022-09-17T13:28:47.019Z,2.30
2022-09-17T13:31:34.284Z,4.20
2022-09-17T13:34:03.800Z,2.90
2022-09-17T13:36:41.643Z,2.30
2022-09-17T13:39:39.268Z,3.00
2022-09-17T13:42:19.709Z,3.50
2022-09-17T13:44:52.292Z,2.70
2022-09-17T13:47:28.737Z,2.80
2022-09-17T13:50:07.944Z,2.20
2022-09-17T13:52:42.995Z,2.50
2022-09-17T13:55:34.917Z,1.00
2022-09-17T13:58:07.333Z,2.30
2022-09-17T14:00:59.098Z,3.20
2022-09-17T14:06:21.308Z,6.10
2022-09-17T14:08:53.681Z,2.80
2022-09-17T14:11:26.619Z,2.40
2022-09-17T14:14:04.353Z,2.60
2022-09-17T14:16:37.546Z,2.40
2022-09-17T14:19:27.391Z,3.10
2022-09-17T14:21:57.517Z,2.80
2022-09-17T14:24:32.165Z,2.80
2022-09-17T14:27:11.054Z,2.00
2022-09-17T14:30:01.672Z,1.60
2022-09-17T14:32:42.433Z,1.80
2022-09-17T14:35:38.049Z,3.50
2022-09-17T14:38:39.860Z,2.20
2022-09-17T14:41:22.196Z,5.20
2022-09-17T14:46:28.654Z,1.70
2022-09-17T14:49:19.606Z,2.80
2022-09-17T14:51:48.292Z,4.10
2022-09-17T14:54:22.670Z,2.30
2022-09-17T14:57:01.948Z,4.60
2022-09-17T14:59:32.984Z,3.30
2022-09-17T15:02:01.404Z,3.80
2022-09-17T15:04:30.310Z,3.80
2022-09-17T15:07:10.126Z,4.10
2022-09-17T15:09:38.895Z,2.80
2022-09-17T15:12:08.066Z,3.80
2022-09-17T15:14:40.459Z,2.70
2022-09-17T15:17:15.403Z,3.10
2022-09-17T15:19:50.559Z,3.70
2022-09-17T15:22:34.104Z,3.10
2022-09-17T15:25:08.509Z,4.80
2022-09-17T15:27:43.342Z,4.20
2022-09-17T15:30:20.434Z,3.00
2022-09-17T15:32:54.716Z,4.00
2022-09-17T15:35:30.585Z,3.20
2022-09-17T15:38:23.735Z,3.50
2022-09-17T15:40:53.470Z,4.10
2022-09-17T15:43:29.589Z,2.80
2022-09-17T15:46:16.173Z,3.90
2022-09-17T15:48:44.823Z,3.60
2022-09-17T15:51:34.873Z,3.50
2022-09-17T15:54:30.691Z,4.40
2022-09-17T15:57:03.990Z,5.70
2022-09-17T15:59:34.930Z,7.00
2022-09-17T16:02:03.594Z,2.20
2022-09-17T16:04:33.785Z,4.10
2022-09-17T16:07:08.386Z,5.20
2022-09-17T16:09:50.158Z,10.20
2022-09-17T16:12:22.729Z,4.60
2022-09-17T16:14:56.838Z,4.50
2022-09-17T16:17:42.065Z,5.50
2022-09-17T16:20:23.657Z,4.50
2022-09-17T16:22:53.317Z,4.10
2022-09-17T16:25:27.102Z,3.80
2022-09-17T16:28:02.702Z,6.20
2022-09-17T16:30:31.965Z,4.40
2022-09-17T16:33:03.649Z,7.30
2022-09-17T16:35:32.207Z,5.80
2022-09-17T16:38:00.791Z,5.60
2022-09-17T16:40:29.378Z,5.30
2022-09-17T16:43:02.058Z,5.10
2022-09-17T16:45:31.713Z,5.20
2022-09-17T16:48:00.371Z,6.40
2022-09-17T16:50:29.348Z,6.20
2022-09-17T16:53:01.527Z,6.20
2022-09-17T16:55:32.850Z,7.90
2022-09-17T16:58:03.273Z,4.80
2022-09-17T17:00:31.727Z,4.20
2022-09-17T17:03:00.459Z,6.40
2022-09-17T17:05:29.142Z,5.60
2022-09-17T17:07:57.842Z,6.20
2022-09-17T17:10:26.707Z,7.80
2022-09-17T17:12:55.282Z,5.60
2022-09-17T17:15:23.969Z,6.30
2022-09-17T17:17:53.408Z,9.10
2022-09-17T17:20:21.958Z,5.10
2022-09-17T17:22:53.818Z,5.30
2022-09-17T17:25:23.923Z,5.20
2022-09-17T17:27:52.930Z,3.70
2022-09-17T17:30:22.183Z,6.30
2022-09-17T17:32:52.722Z,5.30
2022-09-17T17:35:21.353Z,4.20
2022-09-17T17:37:50.191Z,4.10
2022-09-17T17:40:18.938Z,3.90
2022-09-17T17:42:52.725Z,7.90
2022-09-17T17:45:21.799Z,5.50
2022-09-17T17:47:50.201Z,4.30
2022-09-17T17:50:18.883Z,4.60
2022-09-17T17:52:48.953Z,4.80
2022-09-17T17:55:17.281Z,5.60
2022-09-17T17:57:45.964Z,7.10
2022-09-17T18:00:16.705Z,5.70
2022-09-17T18:02:45.296Z,7.70
2022-09-17T18:05:13.864Z,6.50
2022-09-17T18:07:42.346Z,6.40
2022-09-17T18:10:11.041Z,8.80
2022-09-17T18:12:39.846Z,6.80
2022-09-17T18:15:08.813Z,7.80
2022-09-17T18:17:37.396Z,6.90
2022-09-17T18:20:06.455Z,9.40
2022-09-17T18:22:35.385Z,8.00
2022-09-17T18:25:04.067Z,9.60
2022-09-17T18:27:32.652Z,9.00
2022-09-17T18:30:01.547Z,10.80
2022-09-17T18:32:30.126Z,10.10
2022-09-17T18:34:58.609Z,10.30
2022-09-17T18:37:29.131Z,13.00
2022-09-17T18:39:59.080Z,8.90
2022-09-17T18:42:29.373Z,10.40
2022-09-17T18:44:57.754Z,8.20
2022-09-17T18:47:26.123Z,11.40
2022-09-17T18:49:54.524Z,9.30
2022-09-17T18:52:22.897Z,10.40
2022-09-17T18:54:51.471Z,7.90
2022-09-17T18:57:19.748Z,11.20
2022-09-17T18:59:48.643Z,7.80
2022-09-17T19:02:17.108Z,8.30
2022-09-17T19:04:45.651Z,12.80
2022-09-17T19:07:14.389Z,13.70
2022-09-17T19:09:42.869Z,15.80
2022-09-17T19:12:11.247Z,12.40
2022-09-17T19:14:39.626Z,12.30
2022-09-17T19:17:09.679Z,11.50
2022-09-17T19:19:38.543Z,11.60
2022-09-17T19:22:08.086Z,11.70
2022-09-17T19:24:36.960Z,11.80
2022-09-17T19:27:05.680Z,14.40
2022-09-17T19:29:34.093Z,11.80
2022-09-17T19:32:02.663Z,14.10
2022-09-17T19:34:31.468Z,12.60
2022-09-17T19:37:00.253Z,12.60
2022-09-17T19:39:29.145Z,10.70
2022-09-17T19:41:57.802Z,11.80
2022-09-17T19:44:28.627Z,12.20
2022-09-17T19:46:57.524Z,14.70
2022-09-17T19:49:26.150Z,17.30
2022-09-17T19:51:54.741Z,14.00
2022-09-17T19:54:23.039Z,15.70
2022-09-17T19:56:51.582Z,15.80
2022-09-17T19:59:19.840Z,12.40
2022-09-17T20:01:49.683Z,14.00
2022-09-17T20:04:18.488Z,13.30
2022-09-17T20:06:46.841Z,13.90
2022-09-17T20:09:15.117Z,15.00
2022-09-17T20:11:43.479Z,10.30
2022-09-17T20:14:12.668Z,11.90
2022-09-17T20:16:41.481Z,14.90
2022-09-17T20:19:14.362Z,13.70
2022-09-17T20:21:42.953Z,11.40
2022-09-17T20:24:11.836Z,12.30
2022-09-17T20:26:40.878Z,10.70
2022-09-17T20:39:33.031Z,15.60
2022-09-17T20:42:03.099Z,11.90
2022-09-17T20:44:31.428Z,12.40
2022-09-17T20:47:01.797Z,15.20
2022-09-17T20:49:30.333Z,14.40
2022-09-17T20:51:59.328Z,10.90
2022-09-17T20:54:28.114Z,14.80
2022-09-17T20:56:56.540Z,15.80
2022-09-17T20:59:36.648Z,12.90
2022-09-17T21:02:05.064Z,17.90
2022-09-17T21:04:33.644Z,11.00
2022-09-17T21:07:02.263Z,12.70
2022-09-17T21:09:30.672Z,13.10
2022-09-17T21:11:59.051Z,12.60
2022-09-17T21:14:27.534Z,16.40
2022-09-17T21:16:55.914Z,16.00
2022-09-17T21:19:25.624Z,13.70
2022-09-17T21:21:54.921Z,12.40
2022-09-17T21:24:24.078Z,15.80
2022-09-17T21:26:54.343Z,13.40
2022-09-17T21:29:22.686Z,11.20
2022-09-17T21:31:51.745Z,12.30
2022-09-17T21:34:20.194Z,13.80
2022-09-17T21:36:50.005Z,16.30
2022-09-17T21:39:18.531Z,10.50
2022-09-17T21:41:48.268Z,12.20
2022-09-17T21:44:16.669Z,12.90
2022-09-17T21:46:45.215Z,9.40
2022-09-17T21:49:13.896Z,11.90
2022-09-17T21:51:42.756Z,11.20
2022-09-17T21:54:13.661Z,9.00
2022-09-17T21:56:42.561Z,10.90
2022-09-17T21:59:13.459Z,10.80
2022-09-17T22:01:47.334Z,8.50
2022-09-17T22:04:19.064Z,10.10
2022-09-17T22:06:50.417Z,11.10
2022-09-17T22:09:24.628Z,11.80
2022-09-17T22:11:53.426Z,10.10
2022-09-17T22:14:25.618Z,11.20
2022-09-17T22:16:57.038Z,10.20
2022-09-17T22:19:26.543Z,10.50
2022-09-17T22:21:56.424Z,12.00
2022-09-17T22:24:26.003Z,8.20
2022-09-17T22:26:58.185Z,11.00
2022-09-17T22:29:31.734Z,16.70
2022-09-17T22:32:00.358Z,10.90
2022-09-17T22:34:29.981Z,11.00
2022-09-17T22:36:59.935Z,9.80
2022-09-17T22:39:28.312Z,9.30
2022-09-17T22:41:57.100Z,7.60
2022-09-17T22:44:25.376Z,9.60
2022-09-17T22:46:53.840Z,9.40
2022-09-17T22:49:22.253Z,13.90
2022-09-17T22:51:50.714Z,8.60
2022-09-17T22:54:19.125Z,8.80
2022-09-17T22:56:48.652Z,8.00
2022-09-17T22:59:18.391Z,9.10
2022-09-17T23:01:48.029Z,7.80
2022-09-17T23:04:16.505Z,11.60
2022-09-17T23:06:44.858Z,11.90
2022-09-17T23:09:14.528Z,9.00
2022-09-17T23:11:43.221Z,9.60
2022-09-17T23:14:13.347Z,7.60
2022-09-17T23:16:44.866Z,8.30
2022-09-17T23:19:16.966Z,7.40
2022-09-17T23:21:45.732Z,10.50
2022-09-17T23:24:22.420Z,8.90
2022-09-17T23:26:51.088Z,9.60
2022-09-17T23:29:19.844Z,8.90
2022-09-17T23:31:48.598Z,6.80
2022-09-17T23:34:17.111Z,9.10
2022-09-17T23:36:45.592Z,11.90
2022-09-17T23:39:14.029Z,6.40
2022-09-17T23:41:45.013Z,8.50
2022-09-17T23:44:16.267Z,9.70
2022-09-17T23:46:46.333Z,7.80
2022-09-17T23:49:16.035Z,8.20
2022-09-17T23:51:45.266Z,7.30
2022-09-17T23:54:14.040Z,8.60
2022-09-17T23:56:42.547Z,8.40
2022-09-17T23:59:11.314Z,8.60
